sensor_id;sensor_type;location;lat;lon;timestamp;temperature;humidity
3154;DHT22;1587;48.630;9.046;2022-08-11T00:02:26;12.70;99.90
3154;DHT22;1587;48.630;9.046;2022-08-11T00:04:53;12.60;99.90
3154;DHT22;1587;48.630;9.046;2022-08-11T00:07:19;12.50;99.90
3154;DHT22;1587;48.630;9.046;2022-08-11T00:09:44;12.50;99.90
3154;DHT22;1587;48.630;9.046;2022-08-11T00:12:14;12.50;99.90
3154;DHT22;1587;48.630;9.046;2022-08-11T00:14:40;12.50;99.90
3154;DHT22;1587;48.630;9.046;2022-08-11T00:17:08;12.50;99.90
3154;DHT22;1587;48.630;9.046;2022-08-11T00:19:34;12.50;99.90
3154;DHT22;1587;48.630;9.046;2022-08-11T00:22:01;12.50;99.90
3154;DHT22;1587;48.630;9.046;2022-08-11T00:24:35;12.50;99.90
3154;DHT22;1587;48.630;9.046;2022-08-11T00:27:01;12.50;99.90
3154;DHT22;1587;48.630;9.046;2022-08-11T00:29:27;12.50;99.90
3154;DHT22;1587;48.630;9.046;2022-08-11T00:31:53;12.50;99.90
3154;DHT22;1587;48.630;9.046;2022-08-11T00:34:20;12.40;99.90
3154;DHT22;1587;48.630;9.046;2022-08-11T00:36:49;12.30;99.90
3154;DHT22;1587;48.630;9.046;2022-08-11T00:39:16;12.20;99.90
3154;DHT22;1587;48.630;9.046;2022-08-11T00:50:17;12.30;99.90
3154;DHT22;1587;48.630;9.046;2022-08-11T01:00:47;12.10;99.90
3154;DHT22;1587;48.630;9.046;2022-08-11T01:03:30;12.00;99.90
3154;DHT22;1587;48.630;9.046;2022-08-11T01:13:59;11.90;99.90
3154;DHT22;1587;48.630;9.046;2022-08-11T01:27:06;11.70;99.90
3154;DHT22;1587;48.630;9.046;2022-08-11T01:29:53;11.70;99.90
3154;DHT22;1587;48.630;9.046;2022-08-11T01:40:39;11.60;99.90
3154;DHT22;1587;48.630;9.046;2022-08-11T01:48:33;11.60;99.90
3154;DHT22;1587;48.630;9.046;2022-08-11T01:53:47;11.50;99.90
3154;DHT22;1587;48.630;9.046;2022-08-11T02:03:54;11.50;99.90
3154;DHT22;1587;48.630;9.046;2022-08-11T02:06:25;11.60;99.90
3154;DHT22;1587;48.630;9.046;2022-08-11T02:11:41;11.40;99.90
3154;DHT22;1587;48.630;9.046;2022-08-11T02:19:49;11.40;99.90
3154;DHT22;1587;48.630;9.046;2022-08-11T02:22:41;11.40;99.90
3154;DHT22;1587;48.630;9.046;2022-08-11T02:28:30;11.30;99.90
3154;DHT22;1587;48.630;9.046;2022-08-11T02:31:07;11.10;99.90
3154;DHT22;1587;48.630;9.046;2022-08-11T02:34:08;11.10;99.90
3154;DHT22;1587;48.630;9.046;2022-08-11T02:36:41;11.20;99.90
3154;DHT22;1587;48.630;9.046;2022-08-11T02:39:09;11.20;99.90
3154;DHT22;1587;48.630;9.046;2022-08-11T02:47:08;11.10;99.90
3154;DHT22;1587;48.630;9.046;2022-08-11T02:55:19;11.10;99.90
3154;DHT22;1587;48.630;9.046;2022-08-11T02:57:50;11.10;99.90
3154;DHT22;1587;48.630;9.046;2022-08-11T03:00:17;11.10;99.90
3154;DHT22;1587;48.630;9.046;2022-08-11T03:05:37;11.00;99.90
3154;DHT22;1587;48.630;9.046;2022-08-11T03:13:38;11.00;99.90
3154;DHT22;1587;48.630;9.046;2022-08-11T03:16:31;10.80;99.90
3154;DHT22;1587;48.630;9.046;2022-08-11T03:32:19;10.70;99.90
3154;DHT22;1587;48.630;9.046;2022-08-11T03:34:45;10.60;99.90
3154;DHT22;1587;48.630;9.046;2022-08-11T03:40:23;10.50;99.90
3154;DHT22;1587;48.630;9.046;2022-08-11T03:46:13;10.50;99.90
3154;DHT22;1587;48.630;9.046;2022-08-11T03:48:36;10.50;99.90
3154;DHT22;1587;48.630;9.046;2022-08-11T03:53:53;10.70;99.90
3154;DHT22;1587;48.630;9.046;2022-08-11T03:59:23;10.50;99.90
3154;DHT22;1587;48.630;9.046;2022-08-11T04:04:30;10.60;99.90
3154;DHT22;1587;48.630;9.046;2022-08-11T04:15:12;10.40;99.90
3154;DHT22;1587;48.630;9.046;2022-08-11T04:18:04;10.50;99.90
3154;DHT22;1587;48.630;9.046;2022-08-11T04:23:24;10.60;99.90
3154;DHT22;1587;48.630;9.046;2022-08-11T04:25:55;10.60;99.90
3154;DHT22;1587;48.630;9.046;2022-08-11T04:28:41;10.60;99.90
3154;DHT22;1587;48.630;9.046;2022-08-11T04:34:39;10.70;99.90
3154;DHT22;1587;48.630;9.046;2022-08-11T04:39:46;10.70;99.90
3154;DHT22;1587;48.630;9.046;2022-08-11T04:45:19;10.90;99.90
3154;DHT22;1587;48.630;9.046;2022-08-11T04:47:53;10.80;99.90
3154;DHT22;1587;48.630;9.046;2022-08-11T04:53:44;10.80;99.90
3154;DHT22;1587;48.630;9.046;2022-08-11T04:56:33;10.80;99.90
3154;DHT22;1587;48.630;9.046;2022-08-11T04:59:25;10.80;99.90
3154;DHT22;1587;48.630;9.046;2022-08-11T05:10:43;11.10;99.90
3154;DHT22;1587;48.630;9.046;2022-08-11T05:13:04;11.30;99.90
3154;DHT22;1587;48.630;9.046;2022-08-11T05:15:52;11.40;99.90
3154;DHT22;1587;48.630;9.046;2022-08-11T05:18:47;11.60;99.90
3154;DHT22;1587;48.630;9.046;2022-08-11T05:21:33;11.60;99.90
3154;DHT22;1587;48.630;9.046;2022-08-11T05:27:08;12.10;99.90
3154;DHT22;1587;48.630;9.046;2022-08-11T05:30:05;12.30;99.90
3154;DHT22;1587;48.630;9.046;2022-08-11T05:33:01;12.40;99.90
3154;DHT22;1587;48.630;9.046;2022-08-11T05:35:46;12.40;99.90
3154;DHT22;1587;48.630;9.046;2022-08-11T05:38:25;12.60;99.90
3154;DHT22;1587;48.630;9.046;2022-08-11T05:41:11;12.70;99.90
3154;DHT22;1587;48.630;9.046;2022-08-11T05:43:59;12.90;99.90
3154;DHT22;1587;48.630;9.046;2022-08-11T05:46:43;13.10;99.90
3154;DHT22;1587;48.630;9.046;2022-08-11T05:49:31;13.00;99.90
3154;DHT22;1587;48.630;9.046;2022-08-11T05:52:15;13.10;99.90
3154;DHT22;1587;48.630;9.046;2022-08-11T05:55:03;13.30;99.90
3154;DHT22;1587;48.630;9.046;2022-08-11T05:57:47;13.50;99.90
3154;DHT22;1587;48.630;9.046;2022-08-11T06:00:13;13.60;99.90
3154;DHT22;1587;48.630;9.046;2022-08-11T06:02:43;13.80;99.90
3154;DHT22;1587;48.630;9.046;2022-08-11T06:05:10;14.00;99.90
3154;DHT22;1587;48.630;9.046;2022-08-11T06:07:36;14.10;99.90
3154;DHT22;1587;48.630;9.046;2022-08-11T06:10:02;14.20;99.90
3154;DHT22;1587;48.630;9.046;2022-08-11T06:12:28;14.50;99.90
3154;DHT22;1587;48.630;9.046;2022-08-11T06:15:00;14.60;99.90
3154;DHT22;1587;48.630;9.046;2022-08-11T06:17:27;14.90;99.90
3154;DHT22;1587;48.630;9.046;2022-08-11T06:19:59;15.00;99.90
3154;DHT22;1587;48.630;9.046;2022-08-11T06:22:26;15.20;99.90
3154;DHT22;1587;48.630;9.046;2022-08-11T06:24:53;15.40;99.90
3154;DHT22;1587;48.630;9.046;2022-08-11T06:27:20;15.60;99.90
3154;DHT22;1587;48.630;9.046;2022-08-11T06:29:49;15.70;99.90
3154;DHT22;1587;48.630;9.046;2022-08-11T06:32:15;15.90;99.90
3154;DHT22;1587;48.630;9.046;2022-08-11T06:40:08;16.40;99.90
3154;DHT22;1587;48.630;9.046;2022-08-11T06:47:45;16.80;99.90
3154;DHT22;1587;48.630;9.046;2022-08-11T06:50:15;17.20;99.90
3154;DHT22;1587;48.630;9.046;2022-08-11T06:53:00;17.50;99.90
3154;DHT22;1587;48.630;9.046;2022-08-11T06:55:27;17.70;99.90
3154;DHT22;1587;48.630;9.046;2022-08-11T06:58:13;18.00;99.90
3154;DHT22;1587;48.630;9.046;2022-08-11T07:01:00;18.10;99.90
3154;DHT22;1587;48.630;9.046;2022-08-11T07:03:29;18.30;99.90
3154;DHT22;1587;48.630;9.046;2022-08-11T07:06:18;18.30;99.90
3154;DHT22;1587;48.630;9.046;2022-08-11T07:14:33;19.40;96.40
3154;DHT22;1587;48.630;9.046;2022-08-11T07:17:21;19.90;95.90
3154;DHT22;1587;48.630;9.046;2022-08-11T07:19:52;20.10;96.60
3154;DHT22;1587;48.630;9.046;2022-08-11T07:22:36;20.10;94.60
3154;DHT22;1587;48.630;9.046;2022-08-11T07:25:21;20.10;93.90
3154;DHT22;1587;48.630;9.046;2022-08-11T07:28:20;20.50;93.70
3154;DHT22;1587;48.630;9.046;2022-08-11T07:31:12;23.00;89.50
3154;DHT22;1587;48.630;9.046;2022-08-11T07:33:52;23.80;81.60
3154;DHT22;1587;48.630;9.046;2022-08-11T07:36:19;24.20;76.50
3154;DHT22;1587;48.630;9.046;2022-08-11T07:38:48;24.80;75.60
3154;DHT22;1587;48.630;9.046;2022-08-11T07:41:16;25.00;74.70
3154;DHT22;1587;48.630;9.046;2022-08-11T07:43:43;25.10;71.90
3154;DHT22;1587;48.630;9.046;2022-08-11T07:46:13;25.70;70.60
3154;DHT22;1587;48.630;9.046;2022-08-11T07:48:58;26.40;69.80
3154;DHT22;1587;48.630;9.046;2022-08-11T07:51:43;25.80;70.30
3154;DHT22;1587;48.630;9.046;2022-08-11T07:54:27;26.60;69.70
3154;DHT22;1587;48.630;9.046;2022-08-11T07:56:54;26.30;68.10
3154;DHT22;1587;48.630;9.046;2022-08-11T07:59:20;26.50;67.00
3154;DHT22;1587;48.630;9.046;2022-08-11T08:02:05;26.60;66.50
3154;DHT22;1587;48.630;9.046;2022-08-11T08:04:50;26.30;65.90
3154;DHT22;1587;48.630;9.046;2022-08-11T08:07:34;26.00;63.60
3154;DHT22;1587;48.630;9.046;2022-08-11T08:10:20;26.40;64.50
3154;DHT22;1587;48.630;9.046;2022-08-11T08:13:05;27.20;63.40
3154;DHT22;1587;48.630;9.046;2022-08-11T08:15:49;28.00;61.70
3154;DHT22;1587;48.630;9.046;2022-08-11T08:18:34;28.50;61.50
3154;DHT22;1587;48.630;9.046;2022-08-11T08:21:00;28.00;59.40
3154;DHT22;1587;48.630;9.046;2022-08-11T08:23:37;28.20;61.90
3154;DHT22;1587;48.630;9.046;2022-08-11T08:26:06;28.00;61.20
3154;DHT22;1587;48.630;9.046;2022-08-11T08:28:55;27.50;60.70
3154;DHT22;1587;48.630;9.046;2022-08-11T08:31:41;28.00;57.90
3154;DHT22;1587;48.630;9.046;2022-08-11T08:34:08;27.40;60.70
3154;DHT22;1587;48.630;9.046;2022-08-11T08:36:33;27.70;60.00
3154;DHT22;1587;48.630;9.046;2022-08-11T08:38:59;28.20;59.10
3154;DHT22;1587;48.630;9.046;2022-08-11T08:41:28;28.30;57.30
3154;DHT22;1587;48.630;9.046;2022-08-11T08:43:55;28.60;60.50
3154;DHT22;1587;48.630;9.046;2022-08-11T08:46:24;29.00;58.40
3154;DHT22;1587;48.630;9.046;2022-08-11T08:48:52;29.00;57.10
3154;DHT22;1587;48.630;9.046;2022-08-11T08:51:18;28.10;56.60
3154;DHT22;1587;48.630;9.046;2022-08-11T08:54:21;27.40;57.10
3154;DHT22;1587;48.630;9.046;2022-08-11T08:56:44;27.70;58.90
3154;DHT22;1587;48.630;9.046;2022-08-11T08:59:13;28.40;55.20
3154;DHT22;1587;48.630;9.046;2022-08-11T09:01:41;29.10;55.20
3154;DHT22;1587;48.630;9.046;2022-08-11T09:04:07;30.00;55.00
3154;DHT22;1587;48.630;9.046;2022-08-11T09:06:35;29.80;50.40
3154;DHT22;1587;48.630;9.046;2022-08-11T09:09:04;28.30;53.60
3154;DHT22;1587;48.630;9.046;2022-08-11T09:11:29;29.30;55.10
3154;DHT22;1587;48.630;9.046;2022-08-11T09:14:14;29.60;52.40
3154;DHT22;1587;48.630;9.046;2022-08-11T09:16:41;29.40;54.60
3154;DHT22;1587;48.630;9.046;2022-08-11T09:19:08;29.90;52.90
3154;DHT22;1587;48.630;9.046;2022-08-11T09:21:34;29.40;51.70
3154;DHT22;1587;48.630;9.046;2022-08-11T09:24:04;29.00;51.80
3154;DHT22;1587;48.630;9.046;2022-08-11T09:26:48;28.90;53.20
3154;DHT22;1587;48.630;9.046;2022-08-11T09:29:27;29.10;52.50
3154;DHT22;1587;48.630;9.046;2022-08-11T09:31:53;29.40;53.60
3154;DHT22;1587;48.630;9.046;2022-08-11T09:34:20;31.00;50.50
3154;DHT22;1587;48.630;9.046;2022-08-11T09:36:46;31.60;49.00
3154;DHT22;1587;48.630;9.046;2022-08-11T09:39:30;32.00;50.60
3154;DHT22;1587;48.630;9.046;2022-08-11T09:42:15;31.60;48.20
3154;DHT22;1587;48.630;9.046;2022-08-11T09:44:41;30.90;49.00
3154;DHT22;1587;48.630;9.046;2022-08-11T09:47:31;31.20;48.60
3154;DHT22;1587;48.630;9.046;2022-08-11T09:49:59;30.90;48.70
3154;DHT22;1587;48.630;9.046;2022-08-11T09:52:25;31.80;46.20
3154;DHT22;1587;48.630;9.046;2022-08-11T09:54:51;32.50;45.50
3154;DHT22;1587;48.630;9.046;2022-08-11T09:57:20;31.90;48.40
3154;DHT22;1587;48.630;9.046;2022-08-11T10:00:09;31.30;45.00
3154;DHT22;1587;48.630;9.046;2022-08-11T10:02:38;32.10;45.00
3154;DHT22;1587;48.630;9.046;2022-08-11T10:05:04;32.10;44.40
3154;DHT22;1587;48.630;9.046;2022-08-11T10:07:49;31.70;44.70
3154;DHT22;1587;48.630;9.046;2022-08-11T10:10:17;31.60;46.20
3154;DHT22;1587;48.630;9.046;2022-08-11T10:12:55;32.30;44.10
3154;DHT22;1587;48.630;9.046;2022-08-11T10:15:22;31.60;44.00
3154;DHT22;1587;48.630;9.046;2022-08-11T10:18:06;31.80;47.40
3154;DHT22;1587;48.630;9.046;2022-08-11T10:20:53;33.20;48.00
3154;DHT22;1587;48.630;9.046;2022-08-11T10:23:19;31.40;45.70
3154;DHT22;1587;48.630;9.046;2022-08-11T10:26:04;31.60;44.60
3154;DHT22;1587;48.630;9.046;2022-08-11T10:28:49;31.70;43.60
3154;DHT22;1587;48.630;9.046;2022-08-11T10:31:15;32.30;45.10
3154;DHT22;1587;48.630;9.046;2022-08-11T10:34:00;33.40;41.90
3154;DHT22;1587;48.630;9.046;2022-08-11T10:36:26;32.40;42.60
3154;DHT22;1587;48.630;9.046;2022-08-11T10:38:52;32.80;42.80
3154;DHT22;1587;48.630;9.046;2022-08-11T10:41:18;32.90;43.90
3154;DHT22;1587;48.630;9.046;2022-08-11T10:44:03;32.20;39.50
3154;DHT22;1587;48.630;9.046;2022-08-11T10:46:30;31.80;42.20
3154;DHT22;1587;48.630;9.046;2022-08-11T10:49:14;32.90;46.50
3154;DHT22;1587;48.630;9.046;2022-08-11T10:51:40;32.20;40.70
3154;DHT22;1587;48.630;9.046;2022-08-11T10:54:24;33.30;42.00
3154;DHT22;1587;48.630;9.046;2022-08-11T10:57:08;34.10;37.50
3154;DHT22;1587;48.630;9.046;2022-08-11T10:59:53;33.70;39.10
3154;DHT22;1587;48.630;9.046;2022-08-11T11:02:19;32.40;41.50
3154;DHT22;1587;48.630;9.046;2022-08-11T11:07:21;33.90;42.90
3154;DHT22;1587;48.630;9.046;2022-08-11T11:12:24;34.20;40.70
3154;DHT22;1587;48.630;9.046;2022-08-11T11:15:10;33.70;39.10
3154;DHT22;1587;48.630;9.046;2022-08-11T11:18:00;33.90;41.60
3154;DHT22;1587;48.630;9.046;2022-08-11T11:20:53;33.30;41.40
3154;DHT22;1587;48.630;9.046;2022-08-11T11:29:06;32.40;41.50
3154;DHT22;1587;48.630;9.046;2022-08-11T11:31:27;32.40;41.00
3154;DHT22;1587;48.630;9.046;2022-08-11T11:39:10;33.00;42.50
3154;DHT22;1587;48.630;9.046;2022-08-11T11:41:36;31.50;41.30
3154;DHT22;1587;48.630;9.046;2022-08-11T11:44:02;32.00;41.70
3154;DHT22;1587;48.630;9.046;2022-08-11T11:46:28;30.40;46.10
3154;DHT22;1587;48.630;9.046;2022-08-11T11:48:54;31.30;44.00
3154;DHT22;1587;48.630;9.046;2022-08-11T11:51:21;31.50;41.20
3154;DHT22;1587;48.630;9.046;2022-08-11T11:53:46;31.20;40.80
3154;DHT22;1587;48.630;9.046;2022-08-11T11:56:13;30.20;44.20
3154;DHT22;1587;48.630;9.046;2022-08-11T11:58:39;30.10;42.20
3154;DHT22;1587;48.630;9.046;2022-08-11T12:01:23;29.20;43.30
3154;DHT22;1587;48.630;9.046;2022-08-11T12:03:50;29.80;43.90
3154;DHT22;1587;48.630;9.046;2022-08-11T12:06:16;30.00;43.30
3154;DHT22;1587;48.630;9.046;2022-08-11T12:08:42;30.00;43.10
3154;DHT22;1587;48.630;9.046;2022-08-11T12:11:09;30.60;43.00
3154;DHT22;1587;48.630;9.046;2022-08-11T12:13:54;30.60;42.60
3154;DHT22;1587;48.630;9.046;2022-08-11T12:16:21;30.00;42.10
3154;DHT22;1587;48.630;9.046;2022-08-11T12:18:48;30.80;42.90
3154;DHT22;1587;48.630;9.046;2022-08-11T12:21:15;30.30;41.90
3154;DHT22;1587;48.630;9.046;2022-08-11T12:23:41;30.60;42.90
3154;DHT22;1587;48.630;9.046;2022-08-11T12:26:25;31.40;43.70
3154;DHT22;1587;48.630;9.046;2022-08-11T12:29:10;31.00;41.30
3154;DHT22;1587;48.630;9.046;2022-08-11T12:31:37;31.30;40.50
3154;DHT22;1587;48.630;9.046;2022-08-11T12:34:04;32.10;39.70
3154;DHT22;1587;48.630;9.046;2022-08-11T12:36:36;33.10;37.00
3154;DHT22;1587;48.630;9.046;2022-08-11T12:39:04;34.60;36.50
3154;DHT22;1587;48.630;9.046;2022-08-11T12:41:30;34.50;35.40
3154;DHT22;1587;48.630;9.046;2022-08-11T12:44:15;35.20;34.70
3154;DHT22;1587;48.630;9.046;2022-08-11T12:47:00;35.80;35.40
3154;DHT22;1587;48.630;9.046;2022-08-11T12:49:26;34.90;34.60
3154;DHT22;1587;48.630;9.046;2022-08-11T12:52:13;35.40;33.50
3154;DHT22;1587;48.630;9.046;2022-08-11T12:57:17;36.70;33.60
3154;DHT22;1587;48.630;9.046;2022-08-11T13:00:03;36.80;32.50
3154;DHT22;1587;48.630;9.046;2022-08-11T13:02:47;36.50;31.80
3154;DHT22;1587;48.630;9.046;2022-08-11T13:05:31;36.60;32.60
3154;DHT22;1587;48.630;9.046;2022-08-11T13:07:58;36.10;31.30
3154;DHT22;1587;48.630;9.046;2022-08-11T13:10:25;34.50;33.40
3154;DHT22;1587;48.630;9.046;2022-08-11T13:13:09;35.40;33.90
3154;DHT22;1587;48.630;9.046;2022-08-11T13:15:35;35.80;33.40
3154;DHT22;1587;48.630;9.046;2022-08-11T13:18:01;36.30;32.50
3154;DHT22;1587;48.630;9.046;2022-08-11T13:20:27;35.70;33.40
3154;DHT22;1587;48.630;9.046;2022-08-11T13:22:53;36.10;31.40
3154;DHT22;1587;48.630;9.046;2022-08-11T13:25:20;36.10;34.40
3154;DHT22;1587;48.630;9.046;2022-08-11T13:27:47;35.80;32.20
3154;DHT22;1587;48.630;9.046;2022-08-11T13:30:13;34.60;32.70
3154;DHT22;1587;48.630;9.046;2022-08-11T13:32:58;35.30;33.50
3154;DHT22;1587;48.630;9.046;2022-08-11T13:35:23;36.10;33.80
3154;DHT22;1587;48.630;9.046;2022-08-11T13:37:51;36.60;32.30
3154;DHT22;1587;48.630;9.046;2022-08-11T13:40:18;36.30;30.70
3154;DHT22;1587;48.630;9.046;2022-08-11T13:42:44;35.70;31.80
3154;DHT22;1587;48.630;9.046;2022-08-11T13:45:10;35.70;31.70
3154;DHT22;1587;48.630;9.046;2022-08-11T13:47:36;34.80;31.60
3154;DHT22;1587;48.630;9.046;2022-08-11T13:50:03;36.00;33.20
3154;DHT22;1587;48.630;9.046;2022-08-11T13:52:29;35.50;31.90
3154;DHT22;1587;48.630;9.046;2022-08-11T13:54:55;33.50;35.20
3154;DHT22;1587;48.630;9.046;2022-08-11T13:57:21;34.30;33.20
3154;DHT22;1587;48.630;9.046;2022-08-11T13:59:51;35.80;33.80
3154;DHT22;1587;48.630;9.046;2022-08-11T14:02:20;35.10;33.60
3154;DHT22;1587;48.630;9.046;2022-08-11T14:04:51;35.70;32.90
3154;DHT22;1587;48.630;9.046;2022-08-11T14:07:21;34.90;33.60
3154;DHT22;1587;48.630;9.046;2022-08-11T14:09:51;35.70;32.70
3154;DHT22;1587;48.630;9.046;2022-08-11T14:12:22;35.60;32.40
3154;DHT22;1587;48.630;9.046;2022-08-11T14:15:30;34.50;31.90
3154;DHT22;1587;48.630;9.046;2022-08-11T14:18:13;34.30;35.40
3154;DHT22;1587;48.630;9.046;2022-08-11T14:20:41;35.20;34.20
3154;DHT22;1587;48.630;9.046;2022-08-11T14:23:27;35.40;32.30
3154;DHT22;1587;48.630;9.046;2022-08-11T14:25:53;34.80;35.10
3154;DHT22;1587;48.630;9.046;2022-08-11T14:28:38;34.40;35.10
3154;DHT22;1587;48.630;9.046;2022-08-11T14:31:04;34.80;33.70
3154;DHT22;1587;48.630;9.046;2022-08-11T14:33:31;34.90;34.20
3154;DHT22;1587;48.630;9.046;2022-08-11T14:35:58;34.10;34.00
3154;DHT22;1587;48.630;9.046;2022-08-11T14:38:24;35.10;33.50
3154;DHT22;1587;48.630;9.046;2022-08-11T14:40:49;35.10;32.60
3154;DHT22;1587;48.630;9.046;2022-08-11T14:43:35;35.10;32.90
3154;DHT22;1587;48.630;9.046;2022-08-11T14:46:19;33.90;34.00
3154;DHT22;1587;48.630;9.046;2022-08-11T14:49:04;33.70;34.70
3154;DHT22;1587;48.630;9.046;2022-08-11T14:51:29;34.50;35.80
3154;DHT22;1587;48.630;9.046;2022-08-11T14:53:55;34.20;33.80
3154;DHT22;1587;48.630;9.046;2022-08-11T14:56:41;33.80;32.90
3154;DHT22;1587;48.630;9.046;2022-08-11T14:59:09;35.00;35.20
3154;DHT22;1587;48.630;9.046;2022-08-11T15:01:35;34.80;33.50
3154;DHT22;1587;48.630;9.046;2022-08-11T15:04:19;34.60;33.30
3154;DHT22;1587;48.630;9.046;2022-08-11T15:06:45;35.10;35.90
3154;DHT22;1587;48.630;9.046;2022-08-11T15:09:11;34.40;35.10
3154;DHT22;1587;48.630;9.046;2022-08-11T15:11:37;34.30;36.00
3154;DHT22;1587;48.630;9.046;2022-08-11T15:14:21;34.20;37.50
3154;DHT22;1587;48.630;9.046;2022-08-11T15:17:06;33.50;35.40
3154;DHT22;1587;48.630;9.046;2022-08-11T15:19:32;32.20;36.90
3154;DHT22;1587;48.630;9.046;2022-08-11T15:21:59;32.20;38.00
3154;DHT22;1587;48.630;9.046;2022-08-11T15:25:00;31.50;37.90
3154;DHT22;1587;48.630;9.046;2022-08-11T15:27:25;30.80;41.00
3154;DHT22;1587;48.630;9.046;2022-08-11T15:30:14;29.90;40.20
3154;DHT22;1587;48.630;9.046;2022-08-11T15:32:58;29.10;43.60
3154;DHT22;1587;48.630;9.046;2022-08-11T15:35:44;29.10;42.80
3154;DHT22;1587;48.630;9.046;2022-08-11T15:38:28;29.00;41.60
3154;DHT22;1587;48.630;9.046;2022-08-11T15:41:01;28.90;44.00
3154;DHT22;1587;48.630;9.046;2022-08-11T15:43:48;28.80;42.70
3154;DHT22;1587;48.630;9.046;2022-08-11T15:46:38;28.40;43.50
3154;DHT22;1587;48.630;9.046;2022-08-11T15:49:17;28.70;43.60
3154;DHT22;1587;48.630;9.046;2022-08-11T15:52:29;28.90;45.30
3154;DHT22;1587;48.630;9.046;2022-08-11T15:54:38;28.70;43.60
3154;DHT22;1587;48.630;9.046;2022-08-11T15:57:04;28.50;42.80
3154;DHT22;1587;48.630;9.046;2022-08-11T15:59:30;27.90;43.00
3154;DHT22;1587;48.630;9.046;2022-08-11T16:02:15;28.10;46.00
3154;DHT22;1587;48.630;9.046;2022-08-11T16:04:43;28.20;44.70
3154;DHT22;1587;48.630;9.046;2022-08-11T16:07:10;28.10;44.50
3154;DHT22;1587;48.630;9.046;2022-08-11T16:12:20;28.30;45.20
3154;DHT22;1587;48.630;9.046;2022-08-11T16:14:49;28.20;44.20
3154;DHT22;1587;48.630;9.046;2022-08-11T16:17:36;28.10;44.00
3154;DHT22;1587;48.630;9.046;2022-08-11T16:20:05;27.90;44.00
3154;DHT22;1587;48.630;9.046;2022-08-11T16:22:32;27.90;44.90
3154;DHT22;1587;48.630;9.046;2022-08-11T16:25:08;27.80;45.40
3154;DHT22;1587;48.630;9.046;2022-08-11T16:27:38;27.70;42.60
3154;DHT22;1587;48.630;9.046;2022-08-11T16:30:05;27.80;44.40
3154;DHT22;1587;48.630;9.046;2022-08-11T16:32:31;27.60;44.40
3154;DHT22;1587;48.630;9.046;2022-08-11T16:34:58;27.60;44.20
3154;DHT22;1587;48.630;9.046;2022-08-11T16:37:43;27.50;44.90
3154;DHT22;1587;48.630;9.046;2022-08-11T16:40:27;27.50;45.50
3154;DHT22;1587;48.630;9.046;2022-08-11T16:42:54;27.40;46.10
3154;DHT22;1587;48.630;9.046;2022-08-11T16:45:40;27.30;45.40
3154;DHT22;1587;48.630;9.046;2022-08-11T16:48:25;27.40;45.20
3154;DHT22;1587;48.630;9.046;2022-08-11T16:50:53;27.30;45.10
3154;DHT22;1587;48.630;9.046;2022-08-11T16:53:18;27.10;45.80
3154;DHT22;1587;48.630;9.046;2022-08-11T16:55:46;27.10;46.10
3154;DHT22;1587;48.630;9.046;2022-08-11T16:58:13;27.10;45.60
3154;DHT22;1587;48.630;9.046;2022-08-11T17:00:57;27.00;45.20
3154;DHT22;1587;48.630;9.046;2022-08-11T17:03:23;26.90;46.10
3154;DHT22;1587;48.630;9.046;2022-08-11T17:06:07;26.60;45.60
3154;DHT22;1587;48.630;9.046;2022-08-11T17:08:53;26.70;48.60
3154;DHT22;1587;48.630;9.046;2022-08-11T17:11:44;26.60;47.30
3154;DHT22;1587;48.630;9.046;2022-08-11T17:14:36;26.50;46.50
3154;DHT22;1587;48.630;9.046;2022-08-11T17:17:11;26.60;45.90
3154;DHT22;1587;48.630;9.046;2022-08-11T17:19:38;26.50;45.80
3154;DHT22;1587;48.630;9.046;2022-08-11T17:22:06;26.40;49.50
3154;DHT22;1587;48.630;9.046;2022-08-11T17:24:50;26.20;47.80
3154;DHT22;1587;48.630;9.046;2022-08-11T17:27:17;26.10;49.60
3154;DHT22;1587;48.630;9.046;2022-08-11T17:29:49;26.10;48.90
3154;DHT22;1587;48.630;9.046;2022-08-11T17:32:16;26.10;49.30
3154;DHT22;1587;48.630;9.046;2022-08-11T17:35:03;25.90;48.40
3154;DHT22;1587;48.630;9.046;2022-08-11T17:37:48;25.90;47.40
3154;DHT22;1587;48.630;9.046;2022-08-11T17:40:16;25.70;48.80
3154;DHT22;1587;48.630;9.046;2022-08-11T17:42:43;25.70;49.40
3154;DHT22;1587;48.630;9.046;2022-08-11T17:45:27;25.70;52.30
3154;DHT22;1587;48.630;9.046;2022-08-11T17:48:25;25.50;51.00
3154;DHT22;1587;48.630;9.046;2022-08-11T17:50:58;25.10;53.10
3154;DHT22;1587;48.630;9.046;2022-08-11T17:53:28;24.90;53.40
3154;DHT22;1587;48.630;9.046;2022-08-11T17:56:12;24.80;52.00
3154;DHT22;1587;48.630;9.046;2022-08-11T17:58:57;24.70;53.20
3154;DHT22;1587;48.630;9.046;2022-08-11T18:01:42;24.50;53.50
3154;DHT22;1587;48.630;9.046;2022-08-11T18:04:09;24.50;52.60
3154;DHT22;1587;48.630;9.046;2022-08-11T18:06:35;24.20;56.10
3154;DHT22;1587;48.630;9.046;2022-08-11T18:09:12;23.80;54.20
3154;DHT22;1587;48.630;9.046;2022-08-11T18:11:57;23.50;55.40
3154;DHT22;1587;48.630;9.046;2022-08-11T18:14:44;23.30;55.90
3154;DHT22;1587;48.630;9.046;2022-08-11T18:17:28;23.10;56.10
3154;DHT22;1587;48.630;9.046;2022-08-11T18:20:12;23.00;58.00
3154;DHT22;1587;48.630;9.046;2022-08-11T18:22:56;22.70;59.50
3154;DHT22;1587;48.630;9.046;2022-08-11T18:25:44;22.40;60.90
3154;DHT22;1587;48.630;9.046;2022-08-11T18:28:31;22.10;62.70
3154;DHT22;1587;48.630;9.046;2022-08-11T18:31:19;21.80;63.90
3154;DHT22;1587;48.630;9.046;2022-08-11T18:34:05;21.40;63.70
3154;DHT22;1587;48.630;9.046;2022-08-11T18:36:50;21.20;65.10
3154;DHT22;1587;48.630;9.046;2022-08-11T18:39:35;20.90;65.90
3154;DHT22;1587;48.630;9.046;2022-08-11T18:42:25;20.70;66.60
3154;DHT22;1587;48.630;9.046;2022-08-11T18:45:11;20.50;67.30
3154;DHT22;1587;48.630;9.046;2022-08-11T18:47:57;20.30;67.70
3154;DHT22;1587;48.630;9.046;2022-08-11T18:50:43;20.00;68.60
3154;DHT22;1587;48.630;9.046;2022-08-11T18:53:28;19.70;68.60
3154;DHT22;1587;48.630;9.046;2022-08-11T18:56:14;19.70;69.00
3154;DHT22;1587;48.630;9.046;2022-08-11T18:59:00;19.50;69.50
3154;DHT22;1587;48.630;9.046;2022-08-11T19:01:46;19.40;69.80
3154;DHT22;1587;48.630;9.046;2022-08-11T19:04:31;19.20;70.60
3154;DHT22;1587;48.630;9.046;2022-08-11T19:07:16;19.00;70.20
3154;DHT22;1587;48.630;9.046;2022-08-11T19:10:01;18.80;71.10
3154;DHT22;1587;48.630;9.046;2022-08-11T19:12:47;18.70;70.20
3154;DHT22;1587;48.630;9.046;2022-08-11T19:15:31;18.70;70.50
3154;DHT22;1587;48.630;9.046;2022-08-11T19:18:17;18.70;70.70
3154;DHT22;1587;48.630;9.046;2022-08-11T19:21:02;18.60;72.80
3154;DHT22;1587;48.630;9.046;2022-08-11T19:23:49;18.40;73.30
3154;DHT22;1587;48.630;9.046;2022-08-11T19:26:34;18.10;74.60
3154;DHT22;1587;48.630;9.046;2022-08-11T19:29:19;18.00;76.30
3154;DHT22;1587;48.630;9.046;2022-08-11T19:32:04;17.80;78.40
3154;DHT22;1587;48.630;9.046;2022-08-11T19:34:49;17.80;78.40
3154;DHT22;1587;48.630;9.046;2022-08-11T19:37:34;17.80;77.40
3154;DHT22;1587;48.630;9.046;2022-08-11T19:40:18;17.50;78.00
3154;DHT22;1587;48.630;9.046;2022-08-11T19:43:03;17.40;78.60
3154;DHT22;1587;48.630;9.046;2022-08-11T19:45:48;17.30;79.40
3154;DHT22;1587;48.630;9.046;2022-08-11T19:48:33;17.20;80.10
3154;DHT22;1587;48.630;9.046;2022-08-11T19:51:17;17.20;79.00
3154;DHT22;1587;48.630;9.046;2022-08-11T19:54:02;17.10;79.80
3154;DHT22;1587;48.630;9.046;2022-08-11T19:56:46;16.90;80.10
3154;DHT22;1587;48.630;9.046;2022-08-11T19:59:30;16.90;80.00
3154;DHT22;1587;48.630;9.046;2022-08-11T20:02:14;16.90;81.10
3154;DHT22;1587;48.630;9.046;2022-08-11T20:04:58;16.70;81.70
3154;DHT22;1587;48.630;9.046;2022-08-11T20:07:43;16.70;82.00